• Join FlightAware (Why Join?)
  • Login
  • US Flag 
04:51AM EDT


 

Airport Tracker/Info


-or-


 

Live Flight TrackerFlight Track Log ✈ N15FS ✈ 15-Oct-2013 ✈ KFMN - KFNL

Flight Track Log - Related Links

Times and Time Zones

All times are in EDT time to prevent confusion due to time zone crossing. See the N15FS flight status page for this flight to view local times or setup timezone preferences in your user account.

Time Position Orientation Groundspeed Altitude Reporting Facility
EDT Latitude Longitude Course Direction KTS MPH feet Rate Location/Type
05:54PM 36.7408 -108.2489 82° East 124 143 6,000  Level Denver Center
05:55PM 36.7531 -108.2261 56° Northeast 132 152 6,900 720 Climbing Denver Center
05:56PM 36.7444 -108.1875 106° East 126 145 7,500 540 Climbing Denver Center
05:57PM 36.7467 -108.1394 87° East 125 144 8,100 480 Climbing Denver Center
05:58PM 37.0254 -107.9974 71° East  Level Estimated
05:58PM 36.7483 -108.0989 87° East 124 143 8,500  Level Denver Center
05:59PM 37.0320 -107.9371 82° East  Level FlightAware Approximate
05:59PM 36.7581 -108.0528 75° East 124 143 9,000  Level Denver Center
06:00PM 36.7689 -108.0139 71° East 125 144 9,300 420 Climbing Denver Center
06:01PM 36.7811 -107.9692 71° East 123 142 9,900 480 Climbing Denver Center
06:02PM 36.7939 -107.9297 68° East 126 145 10,400 540 Climbing Denver Center
06:03PM 36.8081 -107.8861 68° East 126 145 11,100 480 Climbing Denver Center
06:04PM 36.8181 -107.8444 73° East 125 144 11,500 480 Climbing Denver Center
06:05PM 36.8314 -107.8014 69° East 132 152 12,100 600 Climbing Denver Center
06:06PM 36.8414 -107.7586 74° East 130 150 12,800 480 Climbing Denver Center
06:07PM 36.8525 -107.7158 72° East 129 148 13,200 420 Climbing Denver Center
06:08PM 36.8650 -107.6736 70° East 130 150 13,700 480 Climbing Denver Center
06:09PM 36.8792 -107.6203 72° East 134 154 14,300 540 Climbing Denver Center
06:10PM 36.8919 -107.5767 70° East 135 155 14,900 360 Climbing Denver Center
06:11PM 36.9044 -107.5283 72° East 143 165 15,100 60 Climbing Denver Center
06:13PM 36.9178 -107.4731 73° East 160 184 15,100 -60 Level Denver Center
06:14PM 36.9353 -107.4183 68° East 169 194 15,000  Descending Denver Center
06:15PM 36.9497 -107.3617 72° East 171 197 15,100  Climbing Denver Center
06:16PM 36.9656 -107.2906 74° East 180 207 15,000  Descending Denver Center
06:17PM 36.9800 -107.2333 72° East 182 209 15,100  Climbing Denver Center
06:18PM 36.9983 -107.1658 71° East 183 211 15,000  Descending Denver Center
06:19PM 37.0153 -107.1094 69° East 183 211 15,100  Climbing Denver Center
06:20PM 37.0297 -107.0428 75° East 179 206 15,100  Level Denver Center
06:21PM 37.0444 -106.9861 72° East 179 206 15,100  Level Denver Center
06:22PM 37.0617 -106.9203 72° East 178 205 15,100 -60 Level Denver Center
06:23PM 37.0767 -106.8631 72° East 180 207 15,000  Descending Denver Center
06:24PM 37.0947 -106.7961 71° East 181 208 15,100  Climbing Denver Center
06:25PM 37.1092 -106.7394 72° East 180 207 15,000  Descending Denver Center
06:26PM 37.1264 -106.6708 73° East 182 209 15,100  Climbing Denver Center
06:27PM 37.1433 -106.6122 70° East 185 213 15,000 -60 Descending Denver Center
06:28PM 37.1583 -106.5531 72° East 185 213 15,000  Level Denver Center
06:29PM 37.1764 -106.4817 72° East 189 217 15,100  Climbing Denver Center
06:30PM 37.1914 -106.4236 72° East 187 215 15,000 -60 Descending Denver Center
06:31PM 37.2083 -106.3572 72° East 182 209 15,000  Level Denver Center
06:32PM 37.2217 -106.2989 74° East 181 208 15,100 240 Climbing Denver Center
06:33PM 37.2392 -106.2278 73° East 186 214 15,500 240 Climbing Denver Center
06:34PM 37.2522 -106.1772 72° East 187 215 15,600 240 Climbing Denver Center
06:35PM 37.2706 -106.1142 70° East 168 193 16,100 240 Climbing Denver Center
06:36PM 37.2867 -106.0525 72° East 183 211 16,100  Level Denver Center
06:37PM 37.3053 -105.9847 71° East 186 214 16,100  Level Denver Center
06:39PM 37.3154 -105.9182 79° East  Level FlightAware Approximate
06:40PM 37.3461 -105.8383 79° East 187 215 16,100  Level Denver Center
06:41PM 37.3625 -105.7700 73° East 183 211 16,100  Level Denver Center
06:42PM 37.3756 -105.7094 75° East 185 213 16,100  Level Denver Center
06:43PM 37.3917 -105.6378 74° East 188 216 16,100  Level Denver Center
06:44PM 37.4053 -105.5767 74° East 189 217 16,100  Level Denver Center
06:45PM 37.4211 -105.5028 75° East 194 223 16,100  Level Denver Center
06:46PM 37.4358 -105.4414 73° East 193 222 16,100  Level Denver Center
06:47PM 37.4519 -105.3683 74° East 193 222 16,100 -60 Level Denver Center
06:48PM 37.4669 -105.3047 73° East 196 226 16,000 -60 Descending Denver Center
06:49PM 37.4811 -105.2406 74° East 198 228 16,000  Level Denver Center
06:50PM 37.4975 -105.1667 74° East 197 227 16,000  Level Denver Center
06:51PM 37.5108 -105.1053 75° East 193 222 16,000  Level Denver Center
06:52PM 37.5264 -105.0325 75° East 192 221 16,000  Level Denver Center
06:53PM 37.5392 -104.9700 76° East 192 221 16,000  Level Denver Center
06:54PM 37.5553 -104.8958 75° East 194 223 16,000 -360 Level Denver Center
06:55PM 37.5711 -104.8261 74° East 206 237 15,300 -780 Descending Denver Center
06:56PM 37.5897 -104.7400 75° East 220 253 14,500 -720 Descending Denver Center
06:57PM 37.6042 -104.6686 76° East 221 254 13,900 -300 Descending Denver Center
06:58PM 37.6208 -104.5928 74° East 209 241 14,000  Climbing Denver Center
06:59PM 37.6572 -104.5606 35° Northeast 189 217 14,000  Level Denver Center
07:00PM 37.7022 -104.5592 North 176 203 14,000 180 Level Denver Center
07:01PM 37.7519 -104.5608 358° North 166 191 14,400 480 Climbing Denver Center
07:02PM 37.7897 -104.5503 12° North 152 175 15,100 240 Climbing Denver Center
07:04PM 37.8406 -104.5369 12° North 157 181 15,000 -60 Descending Denver Center
07:05PM 37.8906 -104.5283 North 175 201 15,000  Level Denver Center
07:06PM 37.9475 -104.5139 11° North 183 211 15,000  Level Denver Center
07:07PM 37.9958 -104.5014 12° North 184 212 15,000  Level Denver Center
07:08PM 38.0428 -104.4903 11° North 182 209 15,000  Level Denver Center
07:09PM 38.0964 -104.4769 11° North 178 205 15,100  Climbing Denver Center
07:10PM 38.1431 -104.4658 11° North 177 204 15,100  Level Denver Center
07:11PM 38.1986 -104.4522 11° North 180 207 15,100  Level Denver Center
07:12PM 38.2458 -104.4406 11° North 180 207 15,100  Level Denver Center
07:13PM 38.3006 -104.4258 12° North 180 207 15,100  Level Denver Center
07:14PM 38.3469 -104.4314 355° North 176 203 15,100  Level Denver Center
07:15PM 38.3958 -104.4506 343° North 166 191 15,100 -360 Level Denver Center
07:16PM 38.4406 -104.4653 346° North 171 197 14,400 -780 Descending Denver Center
07:17PM 38.4994 -104.4758 352° North 187 215 13,600 -720 Descending Denver Center
07:18PM 38.5508 -104.4514 20° North 201 231 13,000 -540 Descending Denver Center
07:19PM 38.6033 -104.4553 357° North 198 228 12,500 -480 Descending Denver Center
07:20PM 38.6536 -104.4842 336° Northwest 181 208 12,100 -240 Descending Denver Center
07:21PM 38.6972 -104.4978 346° North 170 196 12,100  Level Denver Center
07:22PM 38.7467 -104.4972 North 160 184 12,100  Level Denver Center
07:23PM 38.7903 -104.4825 15° North 164 189 12,100 -240 Level Denver Center
07:24PM 38.8414 -104.4839 359° North 165 190 11,700 -480 Descending Denver Center
07:25PM 38.8886 -104.4986 346° North 183 211 11,200 -300 Descending Denver Center
07:26PM 38.9356 -104.5117 348° North 174 200 11,100 -60 Descending Denver Center
07:27PM 38.9786 -104.5225 349° North 159 183 11,100 360 Level Denver Center
07:28PM 39.0244 -104.5347 348° North 136 157 11,900 480 Climbing Denver Center
07:29PM 39.0564 -104.5506 339° North 125 144 12,100 60 Climbing Denver Center
07:30PM 39.0967 -104.5692 340° North 152 175 12,100 60 Level Denver Center
07:31PM 39.1400 -104.5842 345° North 153 176 12,300 420 Climbing Denver Center
07:32PM 39.1778 -104.5953 347° North 136 157 13,000 720 Climbing Denver Center
07:33PM 39.2142 -104.6086 344° North 127 146 13,800 480 Climbing Denver Center
07:34PM 39.2456 -104.6181 347° North 119 137 14,100 60 Climbing Denver Center
07:35PM 39.2883 -104.6133 North 155 178 14,000 -60 Descending Denver Center
07:37PM 39.3367 -104.6092 North 163 188 14,000  Level Denver Center
07:38PM 39.3822 -104.6047 North 164 189 14,000  Level Denver Center
07:39PM 39.4306 -104.6017 North 162 186 14,100  Climbing Denver Center
07:40PM 39.4756 -104.5969 North 163 188 14,100  Level Denver Center
07:41PM 39.5194 -104.6033 354° North 160 184 14,100  Level Denver Center
07:42PM 39.5672 -104.6147 350° North 164 189 14,100  Level Denver Center
07:43PM 39.6133 -104.6194 355° North 167 192 14,100  Level Denver Center
07:44PM 39.6631 -104.6239 356° North 168 193 14,100  Level Denver Center
07:45PM 39.7067 -104.6303 354° North 161 185 14,100  Level Denver Center
07:46PM 39.7522 -104.6389 352° North 165 190 14,100  Level Denver Center
07:47PM 39.7992 -104.6486 351° North 160 184 14,100  Level Denver Center
07:48PM 39.8378 -104.6761 331° Northwest 155 178 14,100  Level Denver Center
07:49PM 39.8769 -104.7022 333° Northwest 151 174 14,100  Level Denver Center
07:50PM 39.9156 -104.7228 338° Northwest 151 174 14,100  Level Denver Center
07:51PM 39.9575 -104.7450 338° Northwest 152 175 14,100  Level Denver Center
07:52PM 39.9964 -104.7664 337° Northwest 152 175 14,100  Level Denver Center
07:53PM 40.0361 -104.7889 337° Northwest 147 169 14,100  Level Denver Center
07:54PM 40.0781 -104.7964 352° North 153 176 14,100 -240 Level Denver Center
07:55PM 40.1203 -104.8044 352° North 154 177 13,700 -600 Descending Denver Center
07:56PM 40.1731 -104.8125 353° North 175 201 12,900 -780 Descending Denver Center
07:57PM 40.2214 -104.8194 354° North 174 200 12,200 -720 Descending Denver Center
07:58PM 40.2725 -104.8275 353° North 174 200 11,500 -540 Descending Denver Center
07:59PM 40.3197 -104.8350 353° North 172 198 11,100 -300 Descending Denver Center
08:00PM 40.3631 -104.8414 354° North 159 183 10,900 -540 Descending Denver Center
08:01PM 40.4131 -104.8503 352° North 169 194 10,100 -780 Descending Denver Center
08:02PM 40.4611 -104.8583 353° North 172 198 9,400 -540 Descending Denver Center
08:03PM 40.5111 -104.8653 354° North 167 192 9,000 -180 Descending Denver Center
08:04PM 40.5522 -104.8717 353° North 149 171 9,100  Climbing Denver Center
08:05PM 40.5917 -104.8781 353° North 142 163 9,100  Level Denver Center
08:06PM 40.6325 -104.8850 353° North 138 159 9,100  Level Denver Center
08:07PM 40.6722 -104.8908 354° North 142 163 9,100  Level Denver Center
08:08PM 40.7139 -104.8969 354° North 141 162 9,100  Level Denver Center
08:09PM 40.7400 -104.9247 321° Northwest 139 160 9,100 -240 Level Denver Center
08:11PM 40.7250 -104.9742 248° West 155 178 8,700 -480 Descending Denver Center
08:12PM 40.7028 -105.0258 240° Southwest 153 176 8,200 -240 Descending Denver Center
08:13PM 40.6817 -105.0692 237° Southwest 146 168 8,300  Climbing Denver Center
08:14PM 40.6639 -105.1133 242° Southwest 142 163 8,200 -120 Descending Denver Center
08:16PM 40.5777 -105.0676 158° South  Level FlightAware Approximate
08:23PM 40.4500 -105.0000 159° South  Level FlightAware Approximate
08:24PM 40.4518 -105.0113 159° South  Level Estimated
08:25PM 40.4518 -105.0113 159° South  Level Estimated
08:26PM 40.4518 -105.0113 159° South  Level Estimated
08:27PM 40.4518 -105.0113 159° South  Level Estimated
08:28PM 40.4518 -105.0113 159° South  Level Estimated
08:29PM 40.4518 -105.0113 159° South  Level Estimated
08:30PM 40.4518 -105.0113 159° South  Level Estimated
08:31PM 40.4518 -105.0113 159° South  Level Estimated
08:32PM 40.4518 -105.0113 159° South  Level Estimated
08:33PM 40.4518 -105.0113 159° South  Level Estimated
08:34PM 40.4518 -105.0113 159° South  Level Estimated
08:35PM 40.4518 -105.0113 159° South  Level Estimated